sensor_id;sensor_type;location;lat;lon;timestamp;pressure;altitude;pressure_sealevel;temperature;humidity
75699;BME280;64313;51.018;13.742;2023-04-01T00:01:43;97926.59;;;10.23;74.35
75699;BME280;64313;51.018;13.742;2023-04-01T00:04:09;97922.63;;;10.26;73.79
75699;BME280;64313;51.018;13.742;2023-04-01T00:06:34;97910.31;;;10.25;73.87
75699;BME280;64313;51.018;13.742;2023-04-01T00:09:00;97917.28;;;10.26;73.96
75699;BME280;64313;51.018;13.742;2023-04-01T00:11:25;97903.34;;;10.24;74.19
75699;BME280;64313;51.018;13.742;2023-04-01T00:13:52;97913.56;;;10.27;74.02
75699;BME280;64313;51.018;13.742;2023-04-01T00:16:17;97920.66;;;10.21;74.75
75699;BME280;64313;51.018;13.742;2023-04-01T00:18:43;97921.97;;;10.18;74.89
75699;BME280;64313;51.018;13.742;2023-04-01T00:21:08;97920.09;;;10.19;74.57
75699;BME280;64313;51.018;13.742;2023-04-01T00:23:33;97901.41;;;10.19;74.36
75699;BME280;64313;51.018;13.742;2023-04-01T00:26:00;97916.63;;;10.18;74.52
75699;BME280;64313;51.018;13.742;2023-04-01T00:28:26;97920.31;;;10.17;74.42
75699;BME280;64313;51.018;13.742;2023-04-01T00:30:52;97905.94;;;10.18;74.34
75699;BME280;64313;51.018;13.742;2023-04-01T00:33:17;97908.03;;;10.16;74.64
75699;BME280;64313;51.018;13.742;2023-04-01T00:35:42;97916.84;;;10.17;74.28
75699;BME280;64313;51.018;13.742;2023-04-01T00:38:08;97919.22;;;10.13;74.94
75699;BME280;64313;51.018;13.742;2023-04-01T00:40:36;97924.53;;;10.13;74.44
75699;BME280;64313;51.018;13.742;2023-04-01T00:43:02;97919.22;;;10.13;74.57
75699;BME280;64313;51.018;13.742;2023-04-01T00:45:31;97925.56;;;10.12;74.85
75699;BME280;64313;51.018;13.742;2023-04-01T00:47:59;97925.00;;;10.10;74.80
75699;BME280;64313;51.018;13.742;2023-04-01T00:50:28;97921.31;;;10.11;74.69
75699;BME280;64313;51.018;13.742;2023-04-01T00:52:55;97918.63;;;10.11;74.93
75699;BME280;64313;51.018;13.742;2023-04-01T00:55:21;97914.31;;;10.10;74.95
75699;BME280;64313;51.018;13.742;2023-04-01T00:57:48;97923.88;;;10.06;76.10
75699;BME280;64313;51.018;13.742;2023-04-01T01:00:17;97921.78;;;10.08;75.10
75699;BME280;64313;51.018;13.742;2023-04-01T01:02:44;97918.28;;;10.08;75.51
75699;BME280;64313;51.018;13.742;2023-04-01T01:05:16;97922.25;;;10.05;75.48
75699;BME280;64313;51.018;13.742;2023-04-01T01:08:01;97922.09;;;10.12;74.91
75699;BME280;64313;51.018;13.742;2023-04-01T01:10:33;97925.00;;;10.10;74.73
75699;BME280;64313;51.018;13.742;2023-04-01T01:13:11;97924.47;;;10.08;74.79
75699;BME280;64313;51.018;13.742;2023-04-01T01:15:50;97911.34;;;10.07;75.02
75699;BME280;64313;51.018;13.742;2023-04-01T01:18:37;97924.91;;;10.05;74.66
75699;BME280;64313;51.018;13.742;2023-04-01T01:32:27;97918.78;;;10.05;74.34
75699;BME280;64313;51.018;13.742;2023-04-01T01:35:16;97909.38;;;10.02;74.50
75699;BME280;64313;51.018;13.742;2023-04-01T01:37:46;97916.91;;;10.05;74.54
75699;BME280;64313;51.018;13.742;2023-04-01T01:40:13;97912.63;;;10.04;74.91
75699;BME280;64313;51.018;13.742;2023-04-01T01:42:45;97916.59;;;10.02;74.66
75699;BME280;64313;51.018;13.742;2023-04-01T01:45:12;97914.16;;;10.00;74.70
75699;BME280;64313;51.018;13.742;2023-04-01T01:47:40;97916.81;;;10.00;74.50
75699;BME280;64313;51.018;13.742;2023-04-01T01:50:08;97928.31;;;10.01;74.36
75699;BME280;64313;51.018;13.742;2023-04-01T01:52:34;97919.50;;;10.00;74.38
75699;BME280;64313;51.018;13.742;2023-04-01T01:55:00;97926.13;;;9.97;74.33
75699;BME280;64313;51.018;13.742;2023-04-01T01:57:34;97922.06;;;9.95;74.41
75699;BME280;64313;51.018;13.742;2023-04-01T02:00:07;97927.19;;;9.96;74.65
75699;BME280;64313;51.018;13.742;2023-04-01T02:02:42;97925.09;;;9.99;74.47
75699;BME280;64313;51.018;13.742;2023-04-01T02:05:17;97933.81;;;9.94;74.75
75699;BME280;64313;51.018;13.742;2023-04-01T02:07:48;97920.94;;;9.91;74.62
75699;BME280;64313;51.018;13.742;2023-04-01T02:10:17;97922.81;;;9.90;74.60
75699;BME280;64313;51.018;13.742;2023-04-01T02:12:46;97917.69;;;9.89;74.61
75699;BME280;64313;51.018;13.742;2023-04-01T02:15:13;97921.75;;;9.91;74.84
75699;BME280;64313;51.018;13.742;2023-04-01T02:17:43;97923.03;;;9.89;74.50
75699;BME280;64313;51.018;13.742;2023-04-01T02:20:17;97919.78;;;9.87;74.51
75699;BME280;64313;51.018;13.742;2023-04-01T02:22:48;97927.78;;;9.87;74.71
75699;BME280;64313;51.018;13.742;2023-04-01T02:25:18;97924.09;;;9.88;74.57
75699;BME280;64313;51.018;13.742;2023-04-01T02:27:45;97919.56;;;9.88;74.53
75699;BME280;64313;51.018;13.742;2023-04-01T02:30:13;97926.28;;;9.91;74.17
75699;BME280;64313;51.018;13.742;2023-04-01T02:32:39;97932.41;;;9.91;73.83
75699;BME280;64313;51.018;13.742;2023-04-01T02:35:07;97923.13;;;9.94;74.17
75699;BME280;64313;51.018;13.742;2023-04-01T02:37:35;97923.34;;;9.92;74.06
75699;BME280;64313;51.018;13.742;2023-04-01T02:40:04;97923.34;;;9.92;74.09
75699;BME280;64313;51.018;13.742;2023-04-01T02:42:33;97929.97;;;9.90;73.83
75699;BME280;64313;51.018;13.742;2023-04-01T02:44:58;97934.88;;;9.93;73.92
75699;BME280;64313;51.018;13.742;2023-04-01T02:47:24;97927.97;;;9.97;73.57
75699;BME280;64313;51.018;13.742;2023-04-01T02:49:49;97931.13;;;9.94;73.57
75699;BME280;64313;51.018;13.742;2023-04-01T02:52:14;97934.59;;;9.94;73.74
75699;BME280;64313;51.018;13.742;2023-04-01T02:54:40;97932.41;;;9.91;73.46
75699;BME280;64313;51.018;13.742;2023-04-01T02:57:06;97932.41;;;9.91;73.65
75699;BME280;64313;51.018;13.742;2023-04-01T02:59:31;97934.28;;;9.91;73.73
75699;BME280;64313;51.018;13.742;2023-04-01T03:01:57;97932.41;;;9.91;73.75
75699;BME280;64313;51.018;13.742;2023-04-01T03:04:22;97933.22;;;9.92;73.66
75699;BME280;64313;51.018;13.742;2023-04-01T03:06:48;97935.31;;;9.90;73.50
75699;BME280;64313;51.018;13.742;2023-04-01T03:09:13;97938.81;;;9.90;73.23
75699;BME280;64313;51.018;13.742;2023-04-01T03:11:39;97944.16;;;9.90;73.66
75699;BME280;64313;51.018;13.742;2023-04-01T03:14:06;97942.78;;;9.88;73.44
75699;BME280;64313;51.018;13.742;2023-04-01T03:16:32;97948.56;;;9.85;73.52
75699;BME280;64313;51.018;13.742;2023-04-01T03:18:57;97944.06;;;9.85;73.60
75699;BME280;64313;51.018;13.742;2023-04-01T03:21:25;97945.09;;;9.84;73.68
75699;BME280;64313;51.018;13.742;2023-04-01T03:23:51;97946.97;;;9.84;73.83
75699;BME280;64313;51.018;13.742;2023-04-01T03:26:17;97948.56;;;9.85;73.28
75699;BME280;64313;51.018;13.742;2023-04-01T03:28:43;97950.69;;;9.83;73.42
75699;BME280;64313;51.018;13.742;2023-04-01T03:31:09;97948.56;;;9.85;73.32
75699;BME280;64313;51.018;13.742;2023-04-01T03:33:42;97952.53;;;9.82;73.42
75699;BME280;64313;51.018;13.742;2023-04-01T03:36:08;97953.59;;;9.81;73.52
75699;BME280;64313;51.018;13.742;2023-04-01T03:38:34;97957.28;;;9.80;73.23
75699;BME280;64313;51.018;13.742;2023-04-01T03:41:00;97960.19;;;9.79;73.32
75699;BME280;64313;51.018;13.742;2023-04-01T03:43:25;97959.41;;;9.78;73.65
75699;BME280;64313;51.018;13.742;2023-04-01T03:45:52;97953.22;;;9.78;73.46
75699;BME280;64313;51.018;13.742;2023-04-01T03:48:18;97954.88;;;9.79;73.17
75699;BME280;64313;51.018;13.742;2023-04-01T03:50:44;97962.88;;;9.79;73.17
75699;BME280;64313;51.018;13.742;2023-04-01T03:53:09;97961.22;;;9.78;73.29
75699;BME280;64313;51.018;13.742;2023-04-01T03:55:39;97956.72;;;9.78;72.98
75699;BME280;64313;51.018;13.742;2023-04-01T03:58:06;97969.81;;;9.80;72.95
75699;BME280;64313;51.018;13.742;2023-04-01T04:00:31;97963.91;;;9.78;73.04
75699;BME280;64313;51.018;13.742;2023-04-01T04:02:58;97967.63;;;9.77;72.72
75699;BME280;64313;51.018;13.742;2023-04-01T04:05:29;97970.28;;;9.77;73.12
75699;BME280;64313;51.018;13.742;2023-04-01T04:07:54;97977.50;;;9.76;73.04
75699;BME280;64313;51.018;13.742;2023-04-01T04:10:20;97968.69;;;9.75;72.76
75699;BME280;64313;51.018;13.742;2023-04-01T04:12:49;97975.63;;;9.77;72.63
75699;BME280;64313;51.018;13.742;2023-04-01T04:15:15;97970.28;;;9.77;73.00
75699;BME280;64313;51.018;13.742;2023-04-01T04:17:40;97980.97;;;9.77;72.83
75699;BME280;64313;51.018;13.742;2023-04-01T04:20:07;97977.50;;;9.76;72.80
75699;BME280;64313;51.018;13.742;2023-04-01T04:22:33;97982.84;;;9.76;72.82
75699;BME280;64313;51.018;13.742;2023-04-01T04:24:59;97989.78;;;9.77;72.61
75699;BME280;64313;51.018;13.742;2023-04-01T04:27:25;97990.59;;;9.78;72.77
75699;BME280;64313;51.018;13.742;2023-04-01T04:29:58;97996.97;;;9.77;72.74
75699;BME280;64313;51.018;13.742;2023-04-01T04:32:24;97995.69;;;9.79;72.25
75699;BME280;64313;51.018;13.742;2023-04-01T04:34:49;97995.69;;;9.79;72.31
75699;BME280;64313;51.018;13.742;2023-04-01T04:37:15;97995.69;;;9.79;72.20
75699;BME280;64313;51.018;13.742;2023-04-01T04:39:41;97996.50;;;9.80;72.36
75699;BME280;64313;51.018;13.742;2023-04-01T04:42:07;98002.41;;;9.82;72.22
75699;BME280;64313;51.018;13.742;2023-04-01T04:44:32;98003.47;;;9.81;72.24
75699;BME280;64313;51.018;13.742;2023-04-01T04:46:59;98002.91;;;9.79;72.35
75699;BME280;64313;51.018;13.742;2023-04-01T04:49:25;98002.41;;;9.82;72.01
75699;BME280;64313;51.018;13.742;2023-04-01T04:51:50;97997.88;;;9.82;71.89
75699;BME280;64313;51.018;13.742;2023-04-01T04:54:21;98007.28;;;9.85;71.99
75699;BME280;64313;51.018;13.742;2023-04-01T04:56:52;98008.91;;;9.86;71.68
75699;BME280;64313;51.018;13.742;2023-04-01T04:59:19;98008.34;;;9.84;71.98
75699;BME280;64313;51.018;13.742;2023-04-01T05:01:50;98005.66;;;9.84;71.64
75699;BME280;64313;51.018;13.742;2023-04-01T05:04:16;98003.22;;;9.82;71.88
75699;BME280;64313;51.018;13.742;2023-04-01T05:06:42;98008.56;;;9.82;71.60
75699;BME280;64313;51.018;13.742;2023-04-01T05:09:08;98005.09;;;9.82;71.64
75699;BME280;64313;51.018;13.742;2023-04-01T05:11:34;98015.97;;;9.80;72.18
75699;BME280;64313;51.018;13.742;2023-04-01T05:14:00;98012.06;;;9.83;71.84
75699;BME280;64313;51.018;13.742;2023-04-01T05:16:26;98012.63;;;9.85;71.97
75699;BME280;64313;51.018;13.742;2023-04-01T05:18:51;98016.13;;;9.85;71.96
75699;BME280;64313;51.018;13.742;2023-04-01T05:21:16;98026.53;;;9.87;71.64
75699;BME280;64313;51.018;13.742;2023-04-01T05:23:42;98020.63;;;9.85;72.04
75699;BME280;64313;51.018;13.742;2023-04-01T05:26:11;98020.72;;;9.90;71.69
75699;BME280;64313;51.018;13.742;2023-04-01T05:28:37;98020.41;;;9.86;72.23
75699;BME280;64313;51.018;13.742;2023-04-01T05:31:04;98024.94;;;9.86;71.95
75699;BME280;64313;51.018;13.742;2023-04-01T05:33:34;98032.13;;;9.85;72.25
75699;BME280;64313;51.018;13.742;2023-04-01T05:36:07;98027.00;;;9.84;72.76
75699;BME280;64313;51.018;13.742;2023-04-01T05:38:33;98032.34;;;9.84;72.93
75699;BME280;64313;51.018;13.742;2023-04-01T05:41:00;98026.22;;;9.83;72.87
75699;BME280;64313;51.018;13.742;2023-04-01T05:43:25;98027.81;;;9.84;72.73
75699;BME280;64313;51.018;13.742;2023-04-01T05:45:52;98033.97;;;9.85;72.78
75699;BME280;64313;51.018;13.742;2023-04-01T05:48:34;98036.63;;;9.85;72.89
75699;BME280;64313;51.018;13.742;2023-04-01T05:51:00;98038.50;;;9.84;73.18
75699;BME280;64313;51.018;13.742;2023-04-01T05:53:31;98037.47;;;9.85;72.71
75699;BME280;64313;51.018;13.742;2023-04-01T05:55:56;98033.72;;;9.86;73.10
75699;BME280;64313;51.018;13.742;2023-04-01T05:58:22;98045.22;;;9.87;73.21
75699;BME280;64313;51.018;13.742;2023-04-01T06:00:51;98042.31;;;9.88;72.86
75699;BME280;64313;51.018;13.742;2023-04-01T06:03:16;98048.25;;;9.90;72.91
75699;BME280;64313;51.018;13.742;2023-04-01T06:05:43;98052.75;;;9.90;73.62
75699;BME280;64313;51.018;13.742;2023-04-01T06:08:15;98043.13;;;9.89;73.51
75699;BME280;64313;51.018;13.742;2023-04-01T06:17:08;98041.53;;;9.88;73.25
75699;BME280;64313;51.018;13.742;2023-04-01T06:22:45;98051.72;;;9.91;73.09
75699;BME280;64313;51.018;13.742;2023-04-01T06:25:34;98054.13;;;9.92;73.27
75699;BME280;64313;51.018;13.742;2023-04-01T06:31:20;98057.72;;;9.98;72.59
75699;BME280;64313;51.018;13.742;2023-04-01T06:34:09;98057.34;;;10.06;72.00
75699;BME280;64313;51.018;13.742;2023-04-01T06:37:19;98053.63;;;10.07;72.17
75699;BME280;64313;51.018;13.742;2023-04-01T06:40:00;98048.06;;;10.09;72.41
75699;BME280;64313;51.018;13.742;2023-04-01T06:46:31;98056.75;;;10.16;72.09
75699;BME280;64313;51.018;13.742;2023-04-01T06:49:50;98064.28;;;10.19;71.89
75699;BME280;64313;51.018;13.742;2023-04-01T06:53:22;98058.22;;;10.24;71.30
75699;BME280;64313;51.018;13.742;2023-04-01T06:56:15;98060.22;;;10.28;71.07
75699;BME280;64313;51.018;13.742;2023-04-01T06:59:00;98061.59;;;10.31;70.85
75699;BME280;64313;51.018;13.742;2023-04-01T07:01:54;98063.78;;;10.34;70.74
75699;BME280;64313;51.018;13.742;2023-04-01T07:04:20;98062.50;;;10.36;70.60
75699;BME280;64313;51.018;13.742;2023-04-01T07:07:04;98069.22;;;10.39;70.60
75699;BME280;64313;51.018;13.742;2023-04-01T07:09:44;98063.41;;;10.42;70.32
75699;BME280;64313;51.018;13.742;2023-04-01T07:12:43;98063.50;;;10.47;69.96
75699;BME280;64313;51.018;13.742;2023-04-01T07:15:42;98065.13;;;10.48;70.04
75699;BME280;64313;51.018;13.742;2023-04-01T07:18:29;98077.44;;;10.49;69.91
75699;BME280;64313;51.018;13.742;2023-04-01T07:20:56;98078.25;;;10.50;69.87
75699;BME280;64313;51.018;13.742;2023-04-01T07:23:27;98085.75;;;10.53;69.84
75699;BME280;64313;51.018;13.742;2023-04-01T07:26:14;98085.84;;;10.58;69.35
75699;BME280;64313;51.018;13.742;2023-04-01T07:29:12;98089.38;;;10.58;69.45
75699;BME280;64313;51.018;13.742;2023-04-01T07:34:53;98089.69;;;10.62;69.23
75699;BME280;64313;51.018;13.742;2023-04-01T07:37:29;98084.91;;;10.64;69.34
75699;BME280;64313;51.018;13.742;2023-04-01T07:40:23;98087.91;;;10.68;69.29
75699;BME280;64313;51.018;13.742;2023-04-01T07:46:40;98095.44;;;10.71;69.18
75699;BME280;64313;51.018;13.742;2023-04-01T07:49:28;98102.44;;;10.72;68.97
75699;BME280;64313;51.018;13.742;2023-04-01T07:52:11;98103.00;;;10.74;68.38
75699;BME280;64313;51.018;13.742;2023-04-01T07:57:19;98098.69;;;10.73;68.25
75699;BME280;64313;51.018;13.742;2023-04-01T08:03:34;98117.66;;;10.71;68.12
75699;BME280;64313;51.018;13.742;2023-04-01T08:05:40;98108.09;;;10.75;68.47
75699;BME280;64313;51.018;13.742;2023-04-01T08:08:18;98109.00;;;10.81;68.73
75699;BME280;64313;51.018;13.742;2023-04-01T08:14:31;98107.81;;;11.05;68.93
75699;BME280;64313;51.018;13.742;2023-04-01T08:17:32;98096.81;;;11.19;68.65
75699;BME280;64313;51.018;13.742;2023-04-01T08:20:14;98107.41;;;11.31;68.46
75699;BME280;64313;51.018;13.742;2023-04-01T08:22:49;98108.63;;;11.40;68.14
75699;BME280;64313;51.018;13.742;2023-04-01T08:25:26;98113.06;;;11.51;67.49
75699;BME280;64313;51.018;13.742;2023-04-01T08:27:58;98111.63;;;11.60;67.43
75699;BME280;64313;51.018;13.742;2023-04-01T08:30:28;98116.03;;;11.72;67.03
75699;BME280;64313;51.018;13.742;2023-04-01T08:35:42;98105.81;;;11.85;65.75
75699;BME280;64313;51.018;13.742;2023-04-01T08:38:19;98116.03;;;11.88;64.72
75699;BME280;64313;51.018;13.742;2023-04-01T08:40:59;98109.38;;;11.91;65.14
75699;BME280;64313;51.018;13.742;2023-04-01T08:43:53;98110.19;;;11.91;65.03
75699;BME280;64313;51.018;13.742;2023-04-01T08:52:07;98128.13;;;11.91;64.78
75699;BME280;64313;51.018;13.742;2023-04-01T08:54:47;98130.00;;;11.90;64.95
75699;BME280;64313;51.018;13.742;2023-04-01T09:03:52;98125.84;;;12.00;64.83
75699;BME280;64313;51.018;13.742;2023-04-01T09:06:31;98120.81;;;12.03;64.66
75699;BME280;64313;51.018;13.742;2023-04-01T09:12:26;98120.63;;;12.10;64.72
75699;BME280;64313;51.018;13.742;2023-04-01T09:15:12;98126.56;;;12.12;64.65
75699;BME280;64313;51.018;13.742;2023-04-01T09:21:19;98124.69;;;12.12;63.85
75699;BME280;64313;51.018;13.742;2023-04-01T09:23:55;98132.72;;;12.12;64.07
75699;BME280;64313;51.018;13.742;2023-04-01T09:26:39;98136.19;;;12.13;64.32
75699;BME280;64313;51.018;13.742;2023-04-01T09:32:33;98133.53;;;12.13;64.16
75699;BME280;64313;51.018;13.742;2023-04-01T09:35:38;98140.47;;;12.14;64.04
75699;BME280;64313;51.018;13.742;2023-04-01T09:41:32;98136.75;;;12.15;63.76
75699;BME280;64313;51.018;13.742;2023-04-01T09:44:20;98137.81;;;12.14;63.95
75699;BME280;64313;51.018;13.742;2023-04-01T09:47:20;98131.13;;;12.17;63.42
75699;BME280;64313;51.018;13.742;2023-04-01T09:50:03;98134.66;;;12.17;63.62
75699;BME280;64313;51.018;13.742;2023-04-01T09:52:48;98137.88;;;12.19;63.95
75699;BME280;64313;51.018;13.742;2023-04-01T09:55:45;98148.59;;;12.19;63.72
75699;BME280;64313;51.018;13.742;2023-04-01T09:58:19;98144.88;;;12.20;63.62
75699;BME280;64313;51.018;13.742;2023-04-01T10:01:33;98141.91;;;12.22;63.70
75699;BME280;64313;51.018;13.742;2023-04-01T10:04:17;98140.31;;;12.21;63.83
75699;BME280;64313;51.018;13.742;2023-04-01T10:10:10;98148.91;;;12.23;63.62
75699;BME280;64313;51.018;13.742;2023-04-01T10:13:02;98155.81;;;12.19;62.58
75699;BME280;64313;51.018;13.742;2023-04-01T10:15:41;98156.88;;;12.18;63.60
75699;BME280;64313;51.018;13.742;2023-04-01T10:18:44;98159.00;;;12.16;63.68
75699;BME280;64313;51.018;13.742;2023-04-01T10:21:39;98151.75;;;12.16;63.67
75699;BME280;64313;51.018;13.742;2023-04-01T10:24:32;98156.56;;;12.14;63.59
75699;BME280;64313;51.018;13.742;2023-04-01T10:27:20;98157.63;;;12.13;63.79
75699;BME280;64313;51.018;13.742;2023-04-01T10:36:15;98157.63;;;12.13;64.56
75699;BME280;64313;51.018;13.742;2023-04-01T10:42:18;98155.75;;;12.13;64.75
75699;BME280;64313;51.018;13.742;2023-04-01T10:51:04;98155.00;;;12.18;65.02
75699;BME280;64313;51.018;13.742;2023-04-01T10:54:13;98151.81;;;12.21;64.59
75699;BME280;64313;51.018;13.742;2023-04-01T11:03:46;98147.97;;;12.34;64.62
75699;BME280;64313;51.018;13.742;2023-04-01T11:09:36;98153.78;;;12.48;64.77
75699;BME280;64313;51.018;13.742;2023-04-01T11:12:43;98152.81;;;12.59;65.92
75699;BME280;64313;51.018;13.742;2023-04-01T11:15:41;98152.13;;;12.69;65.97
75699;BME280;64313;51.018;13.742;2023-04-01T11:30:20;98158.50;;;12.90;66.41
75699;BME280;64313;51.018;13.742;2023-04-01T11:44:11;98157.50;;;12.96;65.70
75699;BME280;64313;51.018;13.742;2023-04-01T11:47:24;98167.72;;;12.99;64.94
75699;BME280;64313;51.018;13.742;2023-04-01T11:50:15;98169.84;;;12.97;64.98
75699;BME280;64313;51.018;13.742;2023-04-01T11:53:05;98170.94;;;12.96;65.12
75699;BME280;64313;51.018;13.742;2023-04-01T11:55:56;98163.69;;;12.96;65.40
75699;BME280;64313;51.018;13.742;2023-04-01T11:58:35;98154.06;;;13.01;65.71
75699;BME280;64313;51.018;13.742;2023-04-01T12:10:19;98150.34;;;13.29;65.75
75699;BME280;64313;51.018;13.742;2023-04-01T12:12:59;98155.78;;;13.39;64.77
75699;BME280;64313;51.018;13.742;2023-04-01T12:18:15;98155.91;;;13.54;64.16
75699;BME280;64313;51.018;13.742;2023-04-01T12:21:02;98160.75;;;13.57;64.02
75699;BME280;64313;51.018;13.742;2023-04-01T12:24:09;98158.03;;;13.52;63.08
75699;BME280;64313;51.018;13.742;2023-04-01T12:30:01;98165.81;;;13.49;63.17
75699;BME280;64313;51.018;13.742;2023-04-01T12:38:43;98162.16;;;13.33;65.11
75699;BME280;64313;51.018;13.742;2023-04-01T12:46:49;98167.91;;;13.19;65.10
75699;BME280;64313;51.018;13.742;2023-04-01T12:49:28;98174.03;;;13.15;65.33
75699;BME280;64313;51.018;13.742;2023-04-01T12:52:13;98166.78;;;13.10;65.98
75699;BME280;64313;51.018;13.742;2023-04-01T12:55:06;98179.13;;;13.11;65.71
75699;BME280;64313;51.018;13.742;2023-04-01T12:57:48;98179.34;;;13.10;65.57
75699;BME280;64313;51.018;13.742;2023-04-01T13:00:30;98176.69;;;13.10;66.22
75699;BME280;64313;51.018;13.742;2023-04-01T13:08:40;98178.69;;;13.25;64.73
75699;BME280;64313;51.018;13.742;2023-04-01T13:11:18;98179.09;;;13.33;64.35
75699;BME280;64313;51.018;13.742;2023-04-01T13:16:55;98162.84;;;13.50;62.07
75699;BME280;64313;51.018;13.742;2023-04-01T13:19:33;98183.03;;;13.58;60.87
75699;BME280;64313;51.018;13.742;2023-04-01T13:22:21;98185.56;;;13.70;61.08
75699;BME280;64313;51.018;13.742;2023-04-01T13:25:00;98177.56;;;13.80;60.08
75699;BME280;64313;51.018;13.742;2023-04-01T13:27:34;98176.59;;;13.91;58.16
75699;BME280;64313;51.018;13.742;2023-04-01T13:30:26;98182.53;;;14.03;58.50
75699;BME280;64313;51.018;13.742;2023-04-01T13:33:11;98177.25;;;14.14;59.29
75699;BME280;64313;51.018;13.742;2023-04-01T13:35:57;98185.34;;;14.19;58.87
75699;BME280;64313;51.018;13.742;2023-04-01T13:41:24;98177.28;;;14.19;59.60
75699;BME280;64313;51.018;13.742;2023-04-01T13:44:02;98179.66;;;14.15;58.37
75699;BME280;64313;51.018;13.742;2023-04-01T13:46:54;98186.94;;;14.15;59.09
75699;BME280;64313;51.018;13.742;2023-04-01T13:50:01;98182.63;;;14.14;57.92
75699;BME280;64313;51.018;13.742;2023-04-01T13:52:57;98179.94;;;14.14;57.32
75699;BME280;64313;51.018;13.742;2023-04-01T13:58:38;98187.22;;;14.23;58.38
75699;BME280;64313;51.018;13.742;2023-04-01T14:03:53;98186.44;;;14.23;57.21
75699;BME280;64313;51.018;13.742;2023-04-01T14:06:35;98183.19;;;14.21;57.73
75699;BME280;64313;51.018;13.742;2023-04-01T14:09:35;98190.16;;;14.17;58.57
75699;BME280;64313;51.018;13.742;2023-04-01T14:20:35;98195.94;;;13.98;57.60
75699;BME280;64313;51.018;13.742;2023-04-01T14:23:19;98205.66;;;13.99;57.49
75699;BME280;64313;51.018;13.742;2023-04-01T14:28:43;98197.88;;;14.03;56.42
75699;BME280;64313;51.018;13.742;2023-04-01T14:31:36;98194.66;;;14.06;57.38
75699;BME280;64313;51.018;13.742;2023-04-01T14:36:55;98208.66;;;14.13;57.03
75699;BME280;64313;51.018;13.742;2023-04-01T14:45:36;98213.25;;;14.13;57.54
75699;BME280;64313;51.018;13.742;2023-04-01T14:51:09;98221.28;;;14.07;58.28
75699;BME280;64313;51.018;13.742;2023-04-01T14:53:38;98223.94;;;14.02;58.81
75699;BME280;64313;51.018;13.742;2023-04-01T14:56:09;98230.38;;;14.01;59.10
75699;BME280;64313;51.018;13.742;2023-04-01T14:58:44;98222.00;;;13.98;58.60
75699;BME280;64313;51.018;13.742;2023-04-01T15:07:09;98233.47;;;13.88;58.27
75699;BME280;64313;51.018;13.742;2023-04-01T15:12:32;98237.97;;;13.77;58.08
75699;BME280;64313;51.018;13.742;2023-04-01T15:15:35;98246.78;;;13.73;57.92
75699;BME280;64313;51.018;13.742;2023-04-01T15:18:09;98248.63;;;13.67;57.98
75699;BME280;64313;51.018;13.742;2023-04-01T15:20:49;98245.66;;;13.63;58.44
75699;BME280;64313;51.018;13.742;2023-04-01T15:23:42;98250.47;;;13.61;57.99
75699;BME280;64313;51.018;13.742;2023-04-01T15:26:42;98255.53;;;13.58;58.13
75699;BME280;64313;51.018;13.742;2023-04-01T15:38:07;98255.69;;;13.46;59.61
75699;BME280;64313;51.018;13.742;2023-04-01T15:40:43;98259.94;;;13.42;60.04
75699;BME280;64313;51.018;13.742;2023-04-01T15:43:30;98262.06;;;13.40;60.33
75699;BME280;64313;51.018;13.742;2023-04-01T15:49:38;98269.50;;;13.33;60.88
75699;BME280;64313;51.018;13.742;2023-04-01T15:55:34;98273.25;;;13.32;61.12
75699;BME280;64313;51.018;13.742;2023-04-01T16:00:46;98274.56;;;13.29;61.32
75699;BME280;64313;51.018;13.742;2023-04-01T16:03:26;98279.63;;;13.26;61.65
75699;BME280;64313;51.018;13.742;2023-04-01T16:08:49;98282.06;;;13.27;61.56
75699;BME280;64313;51.018;13.742;2023-04-01T16:11:40;98280.94;;;13.23;61.63
75699;BME280;64313;51.018;13.742;2023-04-01T16:14:29;98283.25;;;13.14;61.68
75699;BME280;64313;51.018;13.742;2023-04-01T16:17:20;98287.75;;;13.09;61.82
75699;BME280;64313;51.018;13.742;2023-04-01T16:20:01;98300.81;;;13.05;61.99
75699;BME280;64313;51.018;13.742;2023-04-01T16:25:01;98301.28;;;12.97;61.89
75699;BME280;64313;51.018;13.742;2023-04-01T16:27:40;98305.25;;;12.94;61.76
75699;BME280;64313;51.018;13.742;2023-04-01T16:30:23;98300.72;;;12.95;61.96
75699;BME280;64313;51.018;13.742;2023-04-01T16:33:12;98311.94;;;12.92;62.17
75699;BME280;64313;51.018;13.742;2023-04-01T16:35:43;98311.69;;;12.93;62.42
75699;BME280;64313;51.018;13.742;2023-04-01T16:41:05;98323.16;;;12.89;62.37
75699;BME280;64313;51.018;13.742;2023-04-01T16:46:26;98325.63;;;12.90;62.64
75699;BME280;64313;51.018;13.742;2023-04-01T16:54:31;98337.50;;;12.77;64.49
75699;BME280;64313;51.018;13.742;2023-04-01T16:59:37;98346.53;;;12.71;64.99
75699;BME280;64313;51.018;13.742;2023-04-01T17:02:10;98356.44;;;12.71;64.27
75699;BME280;64313;51.018;13.742;2023-04-01T17:04:44;98359.38;;;12.69;64.57
75699;BME280;64313;51.018;13.742;2023-04-01T17:07:54;98364.16;;;12.67;65.32
75699;BME280;64313;51.018;13.742;2023-04-01T17:10:38;98371.66;;;12.65;65.66
75699;BME280;64313;51.018;13.742;2023-04-01T17:18:38;98376.38;;;12.58;66.63
75699;BME280;64313;51.018;13.742;2023-04-01T17:27:08;98390.19;;;12.50;67.38
75699;BME280;64313;51.018;13.742;2023-04-01T17:32:36;98389.84;;;12.46;68.16
75699;BME280;64313;51.018;13.742;2023-04-01T17:40:50;98402.88;;;12.38;71.41
75699;BME280;64313;51.018;13.742;2023-04-01T17:43:37;98399.91;;;12.39;70.93
75699;BME280;64313;51.018;13.742;2023-04-01T17:49:05;98414.69;;;12.42;71.81
75699;BME280;64313;51.018;13.742;2023-04-01T17:51:54;98412.03;;;12.42;71.51
75699;BME280;64313;51.018;13.742;2023-04-01T17:54:37;98413.16;;;12.46;70.68
75699;BME280;64313;51.018;13.742;2023-04-01T18:00:02;98420.06;;;12.42;71.16
75699;BME280;64313;51.018;13.742;2023-04-01T18:02:42;98428.66;;;12.44;71.76